sensor_id;sensor_type;location;lat;lon;timestamp;P1;durP1;ratioP1;P2;durP2;ratioP2
47413;SDS011;33163;0.000;0.000;2022-07-19T00:02:21;3.45;;;2.92;;
47413;SDS011;33163;0.000;0.000;2022-07-19T00:04:47;3.42;;;2.88;;
47413;SDS011;33163;0.000;0.000;2022-07-19T00:07:14;6.03;;;2.70;;
47413;SDS011;33163;0.000;0.000;2022-07-19T00:09:41;5.28;;;3.10;;
47413;SDS011;33163;0.000;0.000;2022-07-19T00:12:08;3.35;;;2.85;;
47413;SDS011;33163;0.000;0.000;2022-07-19T00:14:37;4.68;;;2.70;;
47413;SDS011;33163;0.000;0.000;2022-07-19T00:17:04;7.13;;;3.10;;
47413;SDS011;33163;0.000;0.000;2022-07-19T00:19:32;4.10;;;2.75;;
47413;SDS011;33163;0.000;0.000;2022-07-19T00:21:59;5.18;;;3.00;;
47413;SDS011;33163;0.000;0.000;2022-07-19T00:24:26;4.32;;;3.40;;
47413;SDS011;33163;0.000;0.000;2022-07-19T00:26:52;4.95;;;2.92;;
47413;SDS011;33163;0.000;0.000;2022-07-19T00:29:19;9.63;;;3.45;;
47413;SDS011;33163;0.000;0.000;2022-07-19T00:31:46;5.68;;;2.95;;
47413;SDS011;33163;0.000;0.000;2022-07-19T00:34:13;4.47;;;2.67;;
47413;SDS011;33163;0.000;0.000;2022-07-19T00:36:41;5.60;;;3.10;;
47413;SDS011;33163;0.000;0.000;2022-07-19T00:39:08;5.90;;;3.40;;
47413;SDS011;33163;0.000;0.000;2022-07-19T00:41:38;3.92;;;3.00;;
47413;SDS011;33163;0.000;0.000;2022-07-19T00:44:05;3.85;;;2.78;;
47413;SDS011;33163;0.000;0.000;2022-07-19T00:46:32;2.67;;;2.28;;
47413;SDS011;33163;0.000;0.000;2022-07-19T00:48:59;5.55;;;3.15;;
47413;SDS011;33163;0.000;0.000;2022-07-19T00:51:26;4.15;;;2.80;;
47413;SDS011;33163;0.000;0.000;2022-07-19T00:53:55;4.78;;;3.45;;
47413;SDS011;33163;0.000;0.000;2022-07-19T00:56:24;5.03;;;3.15;;
47413;SDS011;33163;0.000;0.000;2022-07-19T00:58:52;5.20;;;3.30;;
47413;SDS011;33163;0.000;0.000;2022-07-19T01:01:20;6.30;;;3.45;;
47413;SDS011;33163;0.000;0.000;2022-07-19T01:03:47;6.20;;;3.30;;
47413;SDS011;33163;0.000;0.000;2022-07-19T01:06:15;6.10;;;3.08;;
47413;SDS011;33163;0.000;0.000;2022-07-19T01:08:42;6.03;;;3.08;;
47413;SDS011;33163;0.000;0.000;2022-07-19T01:11:10;4.90;;;2.97;;
47413;SDS011;33163;0.000;0.000;2022-07-19T01:13:37;4.38;;;2.90;;
47413;SDS011;33163;0.000;0.000;2022-07-19T01:16:04;8.45;;;3.42;;
47413;SDS011;33163;0.000;0.000;2022-07-19T01:18:31;5.00;;;3.50;;
47413;SDS011;33163;0.000;0.000;2022-07-19T01:20:58;6.47;;;3.22;;
47413;SDS011;33163;0.000;0.000;2022-07-19T01:23:28;5.68;;;2.72;;
47413;SDS011;33163;0.000;0.000;2022-07-19T01:25:55;5.65;;;3.28;;
47413;SDS011;33163;0.000;0.000;2022-07-19T01:28:22;5.30;;;3.42;;
47413;SDS011;33163;0.000;0.000;2022-07-19T01:30:49;4.53;;;3.47;;
47413;SDS011;33163;0.000;0.000;2022-07-19T01:33:16;5.53;;;3.40;;
47413;SDS011;33163;0.000;0.000;2022-07-19T01:35:43;4.88;;;3.35;;
47413;SDS011;33163;0.000;0.000;2022-07-19T01:38:10;5.28;;;3.15;;
47413;SDS011;33163;0.000;0.000;2022-07-19T01:40:38;5.85;;;3.13;;
47413;SDS011;33163;0.000;0.000;2022-07-19T01:43:06;4.00;;;2.83;;
47413;SDS011;33163;0.000;0.000;2022-07-19T01:45:33;5.68;;;3.40;;
47413;SDS011;33163;0.000;0.000;2022-07-19T01:48:00;4.00;;;3.45;;
47413;SDS011;33163;0.000;0.000;2022-07-19T01:50:27;4.53;;;3.40;;
47413;SDS011;33163;0.000;0.000;2022-07-19T01:52:53;3.17;;;2.85;;
47413;SDS011;33163;0.000;0.000;2022-07-19T01:55:20;5.90;;;3.20;;
47413;SDS011;33163;0.000;0.000;2022-07-19T01:57:49;5.20;;;3.20;;
47413;SDS011;33163;0.000;0.000;2022-07-19T02:00:16;4.50;;;2.97;;
47413;SDS011;33163;0.000;0.000;2022-07-19T02:02:43;3.33;;;2.60;;
47413;SDS011;33163;0.000;0.000;2022-07-19T02:05:10;5.68;;;3.38;;
47413;SDS011;33163;0.000;0.000;2022-07-19T02:07:37;6.38;;;3.47;;
47413;SDS011;33163;0.000;0.000;2022-07-19T02:10:04;5.07;;;2.85;;
47413;SDS011;33163;0.000;0.000;2022-07-19T02:12:32;5.05;;;3.50;;
47413;SDS011;33163;0.000;0.000;2022-07-19T02:15:00;6.28;;;3.20;;
47413;SDS011;33163;0.000;0.000;2022-07-19T02:17:27;7.60;;;3.38;;
47413;SDS011;33163;0.000;0.000;2022-07-19T02:19:54;5.38;;;3.20;;
47413;SDS011;33163;0.000;0.000;2022-07-19T02:22:20;4.25;;;2.88;;
47413;SDS011;33163;0.000;0.000;2022-07-19T02:24:47;4.20;;;3.35;;
47413;SDS011;33163;0.000;0.000;2022-07-19T02:27:14;5.93;;;3.28;;
47413;SDS011;33163;0.000;0.000;2022-07-19T02:29:41;5.97;;;3.28;;
47413;SDS011;33163;0.000;0.000;2022-07-19T02:32:09;3.83;;;2.70;;
47413;SDS011;33163;0.000;0.000;2022-07-19T02:34:36;6.90;;;3.05;;
47413;SDS011;33163;0.000;0.000;2022-07-19T02:37:03;4.55;;;3.03;;
47413;SDS011;33163;0.000;0.000;2022-07-19T02:39:30;3.95;;;3.35;;
47413;SDS011;33163;0.000;0.000;2022-07-19T02:41:57;5.13;;;3.60;;
47413;SDS011;33163;0.000;0.000;2022-07-19T02:44:24;5.75;;;3.10;;
47413;SDS011;33163;0.000;0.000;2022-07-19T02:46:50;3.65;;;3.10;;
47413;SDS011;33163;0.000;0.000;2022-07-19T02:49:19;5.20;;;3.28;;
47413;SDS011;33163;0.000;0.000;2022-07-19T02:51:46;8.23;;;3.53;;
47413;SDS011;33163;0.000;0.000;2022-07-19T02:54:13;4.22;;;3.10;;
47413;SDS011;33163;0.000;0.000;2022-07-19T02:56:40;6.55;;;3.63;;
47413;SDS011;33163;0.000;0.000;2022-07-19T02:59:07;3.50;;;2.67;;
47413;SDS011;33163;0.000;0.000;2022-07-19T03:01:33;7.32;;;3.00;;
47413;SDS011;33163;0.000;0.000;2022-07-19T03:04:00;5.63;;;3.20;;
47413;SDS011;33163;0.000;0.000;2022-07-19T03:06:28;5.95;;;3.40;;
47413;SDS011;33163;0.000;0.000;2022-07-19T03:08:55;3.88;;;2.90;;
47413;SDS011;33163;0.000;0.000;2022-07-19T03:11:22;4.55;;;3.40;;
47413;SDS011;33163;0.000;0.000;2022-07-19T03:13:48;4.88;;;3.13;;
47413;SDS011;33163;0.000;0.000;2022-07-19T03:16:15;4.13;;;2.83;;
47413;SDS011;33163;0.000;0.000;2022-07-19T03:18:42;6.03;;;3.30;;
47413;SDS011;33163;0.000;0.000;2022-07-19T03:21:09;6.18;;;2.80;;
47413;SDS011;33163;0.000;0.000;2022-07-19T03:23:37;5.18;;;3.15;;
47413;SDS011;33163;0.000;0.000;2022-07-19T03:26:04;6.13;;;3.17;;
47413;SDS011;33163;0.000;0.000;2022-07-19T03:28:31;4.00;;;3.00;;
47413;SDS011;33163;0.000;0.000;2022-07-19T03:30:58;5.78;;;3.20;;
47413;SDS011;33163;0.000;0.000;2022-07-19T03:33:25;4.35;;;3.35;;
47413;SDS011;33163;0.000;0.000;2022-07-19T03:35:52;4.90;;;3.78;;
47413;SDS011;33163;0.000;0.000;2022-07-19T03:38:19;3.28;;;2.55;;
47413;SDS011;33163;0.000;0.000;2022-07-19T03:40:47;4.57;;;3.10;;
47413;SDS011;33163;0.000;0.000;2022-07-19T03:43:14;5.13;;;3.45;;
47413;SDS011;33163;0.000;0.000;2022-07-19T03:45:41;4.30;;;3.15;;
47413;SDS011;33163;0.000;0.000;2022-07-19T03:48:08;4.30;;;2.85;;
47413;SDS011;33163;0.000;0.000;2022-07-19T03:50:34;4.25;;;2.85;;
47413;SDS011;33163;0.000;0.000;2022-07-19T03:53:03;4.30;;;3.20;;
47413;SDS011;33163;0.000;0.000;2022-07-19T03:55:29;4.28;;;3.20;;
47413;SDS011;33163;0.000;0.000;2022-07-19T03:58:01;5.82;;;3.45;;
47413;SDS011;33163;0.000;0.000;2022-07-19T04:00:27;4.75;;;3.30;;
47413;SDS011;33163;0.000;0.000;2022-07-19T04:02:54;6.25;;;3.50;;
47413;SDS011;33163;0.000;0.000;2022-07-19T04:05:23;3.88;;;3.05;;
47413;SDS011;33163;0.000;0.000;2022-07-19T04:07:50;4.30;;;3.25;;
47413;SDS011;33163;0.000;0.000;2022-07-19T04:10:17;4.75;;;3.33;;
47413;SDS011;33163;0.000;0.000;2022-07-19T04:12:44;4.10;;;2.95;;
47413;SDS011;33163;0.000;0.000;2022-07-19T04:15:12;4.40;;;3.40;;
47413;SDS011;33163;0.000;0.000;2022-07-19T04:17:39;5.30;;;3.30;;
47413;SDS011;33163;0.000;0.000;2022-07-19T04:20:06;4.45;;;2.67;;
47413;SDS011;33163;0.000;0.000;2022-07-19T04:22:33;4.43;;;3.53;;
47413;SDS011;33163;0.000;0.000;2022-07-19T04:25:00;4.70;;;3.00;;
47413;SDS011;33163;0.000;0.000;2022-07-19T04:27:28;5.43;;;3.08;;
47413;SDS011;33163;0.000;0.000;2022-07-19T04:29:55;3.97;;;3.05;;
47413;SDS011;33163;0.000;0.000;2022-07-19T04:32:26;4.43;;;3.30;;
47413;SDS011;33163;0.000;0.000;2022-07-19T04:34:54;4.00;;;3.15;;
47413;SDS011;33163;0.000;0.000;2022-07-19T04:37:22;5.30;;;3.33;;
47413;SDS011;33163;0.000;0.000;2022-07-19T04:39:49;3.50;;;3.00;;
47413;SDS011;33163;0.000;0.000;2022-07-19T04:42:18;3.88;;;3.08;;
47413;SDS011;33163;0.000;0.000;2022-07-19T04:44:44;5.13;;;3.42;;
47413;SDS011;33163;0.000;0.000;2022-07-19T04:47:12;6.30;;;2.92;;
47413;SDS011;33163;0.000;0.000;2022-07-19T04:49:40;5.50;;;3.60;;
47413;SDS011;33163;0.000;0.000;2022-07-19T04:52:06;6.78;;;3.00;;
47413;SDS011;33163;0.000;0.000;2022-07-19T04:54:33;4.13;;;3.05;;
47413;SDS011;33163;0.000;0.000;2022-07-19T04:57:00;4.50;;;3.10;;
47413;SDS011;33163;0.000;0.000;2022-07-19T04:59:27;3.90;;;2.78;;
47413;SDS011;33163;0.000;0.000;2022-07-19T05:01:54;4.20;;;3.20;;
47413;SDS011;33163;0.000;0.000;2022-07-19T05:04:21;4.35;;;3.25;;
47413;SDS011;33163;0.000;0.000;2022-07-19T05:06:49;4.70;;;2.88;;
47413;SDS011;33163;0.000;0.000;2022-07-19T05:09:21;5.75;;;3.20;;
47413;SDS011;33163;0.000;0.000;2022-07-19T05:11:49;6.40;;;3.30;;
47413;SDS011;33163;0.000;0.000;2022-07-19T05:14:16;7.68;;;3.15;;
47413;SDS011;33163;0.000;0.000;2022-07-19T05:16:42;3.85;;;3.20;;
47413;SDS011;33163;0.000;0.000;2022-07-19T05:19:09;4.38;;;3.00;;
47413;SDS011;33163;0.000;0.000;2022-07-19T05:21:36;4.40;;;3.22;;
47413;SDS011;33163;0.000;0.000;2022-07-19T05:24:05;3.75;;;2.90;;
47413;SDS011;33163;0.000;0.000;2022-07-19T05:26:32;5.13;;;3.47;;
47413;SDS011;33163;0.000;0.000;2022-07-19T05:28:58;5.43;;;3.08;;
47413;SDS011;33163;0.000;0.000;2022-07-19T05:31:25;3.83;;;2.90;;
47413;SDS011;33163;0.000;0.000;2022-07-19T05:33:52;3.85;;;3.05;;
47413;SDS011;33163;0.000;0.000;2022-07-19T05:36:19;4.78;;;3.10;;
47413;SDS011;33163;0.000;0.000;2022-07-19T05:38:45;5.38;;;3.10;;
47413;SDS011;33163;0.000;0.000;2022-07-19T05:41:14;4.93;;;3.33;;
47413;SDS011;33163;0.000;0.000;2022-07-19T05:43:42;5.38;;;3.25;;
47413;SDS011;33163;0.000;0.000;2022-07-19T05:46:09;4.38;;;2.80;;
47413;SDS011;33163;0.000;0.000;2022-07-19T05:48:36;5.10;;;3.45;;
47413;SDS011;33163;0.000;0.000;2022-07-19T05:51:03;6.93;;;3.58;;
47413;SDS011;33163;0.000;0.000;2022-07-19T05:53:30;5.35;;;3.40;;
47413;SDS011;33163;0.000;0.000;2022-07-19T05:55:57;4.72;;;3.10;;
47413;SDS011;33163;0.000;0.000;2022-07-19T05:58:25;7.03;;;3.38;;
47413;SDS011;33163;0.000;0.000;2022-07-19T06:00:51;3.78;;;3.05;;
47413;SDS011;33163;0.000;0.000;2022-07-19T06:03:36;8.32;;;3.10;;
47413;SDS011;33163;0.000;0.000;2022-07-19T06:06:02;7.97;;;3.00;;
47413;SDS011;33163;0.000;0.000;2022-07-19T06:08:29;4.55;;;3.40;;
47413;SDS011;33163;0.000;0.000;2022-07-19T06:10:59;6.05;;;3.10;;
47413;SDS011;33163;0.000;0.000;2022-07-19T06:13:27;6.53;;;3.58;;
47413;SDS011;33163;0.000;0.000;2022-07-19T06:15:54;6.45;;;3.03;;
47413;SDS011;33163;0.000;0.000;2022-07-19T06:18:21;3.97;;;2.90;;
47413;SDS011;33163;0.000;0.000;2022-07-19T06:20:48;5.35;;;3.45;;
47413;SDS011;33163;0.000;0.000;2022-07-19T06:23:14;7.38;;;2.67;;
47413;SDS011;33163;0.000;0.000;2022-07-19T06:25:41;8.23;;;3.42;;
47413;SDS011;33163;0.000;0.000;2022-07-19T06:28:08;6.10;;;3.15;;
47413;SDS011;33163;0.000;0.000;2022-07-19T06:30:36;4.32;;;3.20;;
47413;SDS011;33163;0.000;0.000;2022-07-19T06:33:03;3.72;;;3.10;;
47413;SDS011;33163;0.000;0.000;2022-07-19T06:35:29;7.70;;;3.30;;
47413;SDS011;33163;0.000;0.000;2022-07-19T06:37:56;5.78;;;3.35;;
47413;SDS011;33163;0.000;0.000;2022-07-19T06:40:23;4.18;;;2.55;;
47413;SDS011;33163;0.000;0.000;2022-07-19T06:42:50;4.28;;;3.25;;
47413;SDS011;33163;0.000;0.000;2022-07-19T06:45:17;4.10;;;3.00;;
47413;SDS011;33163;0.000;0.000;2022-07-19T06:47:45;6.10;;;3.20;;
47413;SDS011;33163;0.000;0.000;2022-07-19T06:50:12;5.18;;;3.15;;
47413;SDS011;33163;0.000;0.000;2022-07-19T06:52:38;5.07;;;3.15;;
47413;SDS011;33163;0.000;0.000;2022-07-19T06:55:05;4.30;;;2.92;;
47413;SDS011;33163;0.000;0.000;2022-07-19T06:57:32;4.65;;;2.90;;
47413;SDS011;33163;0.000;0.000;2022-07-19T06:59:59;4.55;;;2.85;;
47413;SDS011;33163;0.000;0.000;2022-07-19T07:02:26;3.13;;;2.72;;
47413;SDS011;33163;0.000;0.000;2022-07-19T07:04:54;4.65;;;2.90;;
47413;SDS011;33163;0.000;0.000;2022-07-19T07:07:21;4.50;;;3.22;;
47413;SDS011;33163;0.000;0.000;2022-07-19T07:09:48;4.93;;;3.42;;
47413;SDS011;33163;0.000;0.000;2022-07-19T07:12:14;5.45;;;2.90;;
47413;SDS011;33163;0.000;0.000;2022-07-19T07:14:41;5.18;;;2.90;;
47413;SDS011;33163;0.000;0.000;2022-07-19T07:17:08;4.70;;;2.80;;
47413;SDS011;33163;0.000;0.000;2022-07-19T07:19:35;5.40;;;2.78;;
47413;SDS011;33163;0.000;0.000;2022-07-19T07:22:03;4.53;;;2.97;;
47413;SDS011;33163;0.000;0.000;2022-07-19T07:24:30;5.40;;;2.78;;
47413;SDS011;33163;0.000;0.000;2022-07-19T07:26:57;3.03;;;2.70;;
47413;SDS011;33163;0.000;0.000;2022-07-19T07:29:24;6.50;;;2.83;;
47413;SDS011;33163;0.000;0.000;2022-07-19T07:31:50;5.25;;;2.90;;
47413;SDS011;33163;0.000;0.000;2022-07-19T07:34:17;4.55;;;2.70;;
47413;SDS011;33163;0.000;0.000;2022-07-19T07:36:44;3.30;;;2.63;;
47413;SDS011;33163;0.000;0.000;2022-07-19T07:39:12;4.40;;;2.95;;
47413;SDS011;33163;0.000;0.000;2022-07-19T07:41:40;5.85;;;3.47;;
47413;SDS011;33163;0.000;0.000;2022-07-19T07:44:06;4.88;;;3.22;;
47413;SDS011;33163;0.000;0.000;2022-07-19T07:46:33;6.20;;;3.30;;
47413;SDS011;33163;0.000;0.000;2022-07-19T07:49:01;4.68;;;2.53;;
47413;SDS011;33163;0.000;0.000;2022-07-19T07:51:28;4.47;;;2.47;;
47413;SDS011;33163;0.000;0.000;2022-07-19T07:53:55;4.18;;;3.03;;
47413;SDS011;33163;0.000;0.000;2022-07-19T07:56:25;4.25;;;2.60;;
47413;SDS011;33163;0.000;0.000;2022-07-19T07:58:51;3.42;;;2.67;;
47413;SDS011;33163;0.000;0.000;2022-07-19T08:01:18;4.03;;;2.28;;
47413;SDS011;33163;0.000;0.000;2022-07-19T08:03:45;5.22;;;2.90;;
47413;SDS011;33163;0.000;0.000;2022-07-19T08:06:12;3.63;;;2.53;;
47413;SDS011;33163;0.000;0.000;2022-07-19T08:08:40;3.60;;;2.30;;
47413;SDS011;33163;0.000;0.000;2022-07-19T08:11:07;5.07;;;2.65;;
47413;SDS011;33163;0.000;0.000;2022-07-19T08:13:36;5.35;;;2.83;;
47413;SDS011;33163;0.000;0.000;2022-07-19T08:16:03;4.30;;;2.53;;
47413;SDS011;33163;0.000;0.000;2022-07-19T08:18:31;6.30;;;2.83;;
47413;SDS011;33163;0.000;0.000;2022-07-19T08:20:58;5.07;;;2.80;;
47413;SDS011;33163;0.000;0.000;2022-07-19T08:23:24;4.80;;;2.70;;
47413;SDS011;33163;0.000;0.000;2022-07-19T08:25:51;4.00;;;2.72;;
47413;SDS011;33163;0.000;0.000;2022-07-19T08:28:18;3.25;;;2.53;;
47413;SDS011;33163;0.000;0.000;2022-07-19T08:30:46;3.53;;;2.50;;
47413;SDS011;33163;0.000;0.000;2022-07-19T08:33:13;6.93;;;2.67;;
47413;SDS011;33163;0.000;0.000;2022-07-19T08:35:40;3.33;;;2.40;;
47413;SDS011;33163;0.000;0.000;2022-07-19T08:38:06;4.03;;;2.55;;
47413;SDS011;33163;0.000;0.000;2022-07-19T08:40:34;3.25;;;2.42;;
47413;SDS011;33163;0.000;0.000;2022-07-19T08:43:04;8.57;;;2.70;;
47413;SDS011;33163;0.000;0.000;2022-07-19T08:45:31;4.72;;;2.70;;
47413;SDS011;33163;0.000;0.000;2022-07-19T08:48:00;4.15;;;2.22;;
47413;SDS011;33163;0.000;0.000;2022-07-19T08:50:27;4.00;;;2.53;;
47413;SDS011;33163;0.000;0.000;2022-07-19T08:52:55;3.72;;;2.60;;
47413;SDS011;33163;0.000;0.000;2022-07-19T08:55:24;5.05;;;2.63;;
47413;SDS011;33163;0.000;0.000;2022-07-19T08:57:51;3.50;;;2.38;;
47413;SDS011;33163;0.000;0.000;2022-07-19T09:00:23;4.45;;;2.13;;
47413;SDS011;33163;0.000;0.000;2022-07-19T09:02:51;3.67;;;2.42;;
47413;SDS011;33163;0.000;0.000;2022-07-19T09:05:23;3.35;;;2.58;;
47413;SDS011;33163;0.000;0.000;2022-07-19T09:08:01;3.65;;;2.20;;
47413;SDS011;33163;0.000;0.000;2022-07-19T09:10:30;4.85;;;2.33;;
47413;SDS011;33163;0.000;0.000;2022-07-19T09:12:58;3.55;;;2.67;;
47413;SDS011;33163;0.000;0.000;2022-07-19T09:15:36;3.78;;;2.28;;
47413;SDS011;33163;0.000;0.000;2022-07-19T09:18:08;3.10;;;2.08;;
47413;SDS011;33163;0.000;0.000;2022-07-19T09:20:38;4.70;;;2.47;;
47413;SDS011;33163;0.000;0.000;2022-07-19T09:23:06;5.63;;;2.60;;
47413;SDS011;33163;0.000;0.000;2022-07-19T09:25:36;4.43;;;2.35;;
47413;SDS011;33163;0.000;0.000;2022-07-19T09:28:05;4.50;;;2.47;;
47413;SDS011;33163;0.000;0.000;2022-07-19T09:30:35;6.55;;;2.42;;
47413;SDS011;33163;0.000;0.000;2022-07-19T09:33:04;3.97;;;2.05;;
47413;SDS011;33163;0.000;0.000;2022-07-19T09:35:36;4.53;;;2.63;;
47413;SDS011;33163;0.000;0.000;2022-07-19T09:38:20;3.05;;;2.10;;
47413;SDS011;33163;0.000;0.000;2022-07-19T09:40:52;5.60;;;2.67;;
47413;SDS011;33163;0.000;0.000;2022-07-19T09:43:20;3.05;;;2.13;;
47413;SDS011;33163;0.000;0.000;2022-07-19T09:45:52;4.53;;;2.40;;
47413;SDS011;33163;0.000;0.000;2022-07-19T09:48:19;4.78;;;2.22;;
47413;SDS011;33163;0.000;0.000;2022-07-19T09:50:47;3.03;;;2.28;;
47413;SDS011;33163;0.000;0.000;2022-07-19T09:53:14;2.90;;;2.08;;
47413;SDS011;33163;0.000;0.000;2022-07-19T09:55:42;2.67;;;2.03;;
47413;SDS011;33163;0.000;0.000;2022-07-19T09:58:10;4.80;;;2.22;;
47413;SDS011;33163;0.000;0.000;2022-07-19T10:00:37;3.55;;;2.38;;
47413;SDS011;33163;0.000;0.000;2022-07-19T10:03:05;4.35;;;2.22;;
47413;SDS011;33163;0.000;0.000;2022-07-19T10:05:35;3.63;;;2.20;;
47413;SDS011;33163;0.000;0.000;2022-07-19T10:08:04;3.50;;;1.90;;
47413;SDS011;33163;0.000;0.000;2022-07-19T10:10:31;4.00;;;2.25;;
47413;SDS011;33163;0.000;0.000;2022-07-19T10:12:58;2.65;;;1.83;;
47413;SDS011;33163;0.000;0.000;2022-07-19T10:15:27;3.42;;;1.95;;
47413;SDS011;33163;0.000;0.000;2022-07-19T10:18:05;3.65;;;2.83;;
47413;SDS011;33163;0.000;0.000;2022-07-19T10:20:36;1.63;;;1.52;;
47413;SDS011;33163;0.000;0.000;2022-07-19T10:23:06;2.15;;;1.67;;
47413;SDS011;33163;0.000;0.000;2022-07-19T10:25:37;3.63;;;2.42;;
47413;SDS011;33163;0.000;0.000;2022-07-19T10:28:05;4.10;;;2.05;;
47413;SDS011;33163;0.000;0.000;2022-07-19T10:30:51;2.38;;;1.63;;
47413;SDS011;33163;0.000;0.000;2022-07-19T10:33:32;3.67;;;2.25;;
47413;SDS011;33163;0.000;0.000;2022-07-19T10:39:26;2.97;;;2.10;;
47413;SDS011;33163;0.000;0.000;2022-07-19T10:42:15;4.85;;;1.90;;
47413;SDS011;33163;0.000;0.000;2022-07-19T10:50:52;2.65;;;1.90;;
47413;SDS011;33163;0.000;0.000;2022-07-19T10:56:25;2.58;;;1.75;;
47413;SDS011;33163;0.000;0.000;2022-07-19T10:58:54;3.30;;;1.80;;
47413;SDS011;33163;0.000;0.000;2022-07-19T11:01:23;4.13;;;2.35;;
47413;SDS011;33163;0.000;0.000;2022-07-19T11:03:53;2.70;;;2.10;;
47413;SDS011;33163;0.000;0.000;2022-07-19T11:06:21;2.47;;;1.80;;
47413;SDS011;33163;0.000;0.000;2022-07-19T11:08:52;2.53;;;1.88;;
47413;SDS011;33163;0.000;0.000;2022-07-19T11:11:20;3.05;;;2.13;;
47413;SDS011;33163;0.000;0.000;2022-07-19T11:13:49;2.35;;;1.90;;
47413;SDS011;33163;0.000;0.000;2022-07-19T11:16:17;3.67;;;1.95;;
47413;SDS011;33163;0.000;0.000;2022-07-19T11:18:44;2.35;;;1.75;;
47413;SDS011;33163;0.000;0.000;2022-07-19T11:21:12;6.07;;;1.80;;
47413;SDS011;33163;0.000;0.000;2022-07-19T11:23:40;2.75;;;1.70;;
47413;SDS011;33163;0.000;0.000;2022-07-19T11:26:09;3.15;;;1.60;;
47413;SDS011;33163;0.000;0.000;2022-07-19T11:28:37;3.58;;;1.98;;
47413;SDS011;33163;0.000;0.000;2022-07-19T11:31:13;2.20;;;1.70;;
47413;SDS011;33163;0.000;0.000;2022-07-19T11:33:41;2.42;;;1.83;;
47413;SDS011;33163;0.000;0.000;2022-07-19T11:36:09;3.90;;;1.88;;
47413;SDS011;33163;0.000;0.000;2022-07-19T11:38:37;4.40;;;2.10;;
47413;SDS011;33163;0.000;0.000;2022-07-19T11:41:10;5.38;;;2.30;;
47413;SDS011;33163;0.000;0.000;2022-07-19T11:43:38;3.03;;;1.88;;
47413;SDS011;33163;0.000;0.000;2022-07-19T11:46:05;2.72;;;1.75;;
47413;SDS011;33163;0.000;0.000;2022-07-19T11:48:33;2.92;;;1.80;;
47413;SDS011;33163;0.000;0.000;2022-07-19T11:51:01;4.80;;;1.73;;
47413;SDS011;33163;0.000;0.000;2022-07-19T11:53:30;2.28;;;1.48;;
47413;SDS011;33163;0.000;0.000;2022-07-19T11:55:58;4.20;;;1.75;;
47413;SDS011;33163;0.000;0.000;2022-07-19T11:58:25;2.70;;;1.73;;
47413;SDS011;33163;0.000;0.000;2022-07-19T12:00:52;2.45;;;1.85;;
47413;SDS011;33163;0.000;0.000;2022-07-19T12:03:26;3.58;;;1.92;;
47413;SDS011;33163;0.000;0.000;2022-07-19T12:05:55;6.05;;;1.90;;
47413;SDS011;33163;0.000;0.000;2022-07-19T12:08:31;3.40;;;1.80;;
47413;SDS011;33163;0.000;0.000;2022-07-19T12:10:59;2.80;;;1.83;;
47413;SDS011;33163;0.000;0.000;2022-07-19T12:13:27;1.75;;;1.60;;
47413;SDS011;33163;0.000;0.000;2022-07-19T12:15:57;4.95;;;2.13;;
47413;SDS011;33163;0.000;0.000;2022-07-19T12:18:42;2.35;;;1.48;;
47413;SDS011;33163;0.000;0.000;2022-07-19T12:21:19;3.30;;;2.17;;
47413;SDS011;33163;0.000;0.000;2022-07-19T12:24:13;4.85;;;2.00;;
47413;SDS011;33163;0.000;0.000;2022-07-19T12:26:45;6.28;;;1.98;;
47413;SDS011;33163;0.000;0.000;2022-07-19T12:29:22;2.03;;;1.75;;
47413;SDS011;33163;0.000;0.000;2022-07-19T12:31:56;3.35;;;1.92;;
47413;SDS011;33163;0.000;0.000;2022-07-19T12:34:25;1.92;;;1.70;;
47413;SDS011;33163;0.000;0.000;2022-07-19T12:36:54;2.35;;;1.80;;
47413;SDS011;33163;0.000;0.000;2022-07-19T12:39:24;4.57;;;1.92;;
47413;SDS011;33163;0.000;0.000;2022-07-19T12:41:56;3.05;;;2.08;;
47413;SDS011;33163;0.000;0.000;2022-07-19T12:44:27;4.50;;;1.73;;
47413;SDS011;33163;0.000;0.000;2022-07-19T12:46:55;2.58;;;1.65;;
47413;SDS011;33163;0.000;0.000;2022-07-19T12:49:22;1.63;;;1.42;;
47413;SDS011;33163;0.000;0.000;2022-07-19T12:51:49;2.10;;;1.58;;
47413;SDS011;33163;0.000;0.000;2022-07-19T12:54:18;2.45;;;1.67;;
47413;SDS011;33163;0.000;0.000;2022-07-19T12:56:44;2.22;;;1.77;;
47413;SDS011;33163;0.000;0.000;2022-07-19T12:59:11;1.95;;;1.70;;
47413;SDS011;33163;0.000;0.000;2022-07-19T13:01:55;5.13;;;1.40;;
47413;SDS011;33163;0.000;0.000;2022-07-19T13:04:22;4.15;;;1.90;;
47413;SDS011;33163;0.000;0.000;2022-07-19T13:06:49;2.13;;;1.70;;
47413;SDS011;33163;0.000;0.000;2022-07-19T13:09:17;2.45;;;1.90;;
47413;SDS011;33163;0.000;0.000;2022-07-19T13:11:44;2.65;;;1.75;;
47413;SDS011;33163;0.000;0.000;2022-07-19T13:14:11;4.57;;;1.38;;
47413;SDS011;33163;0.000;0.000;2022-07-19T13:16:38;2.88;;;1.63;;
47413;SDS011;33163;0.000;0.000;2022-07-19T13:19:05;4.07;;;1.75;;
47413;SDS011;33163;0.000;0.000;2022-07-19T13:21:32;3.33;;;1.67;;
47413;SDS011;33163;0.000;0.000;2022-07-19T13:23:59;3.15;;;1.52;;
47413;SDS011;33163;0.000;0.000;2022-07-19T13:26:27;2.85;;;1.70;;
47413;SDS011;33163;0.000;0.000;2022-07-19T13:28:54;2.08;;;1.50;;
47413;SDS011;33163;0.000;0.000;2022-07-19T13:31:21;2.58;;;1.52;;
47413;SDS011;33163;0.000;0.000;2022-07-19T13:33:48;3.47;;;1.85;;
47413;SDS011;33163;0.000;0.000;2022-07-19T13:36:15;4.63;;;2.17;;
47413;SDS011;33163;0.000;0.000;2022-07-19T13:38:41;2.58;;;1.80;;
47413;SDS011;33163;0.000;0.000;2022-07-19T13:41:08;1.85;;;1.60;;
47413;SDS011;33163;0.000;0.000;2022-07-19T13:43:36;3.10;;;1.88;;
47413;SDS011;33163;0.000;0.000;2022-07-19T13:46:03;2.25;;;1.90;;
47413;SDS011;33163;0.000;0.000;2022-07-19T13:48:30;2.20;;;1.80;;
47413;SDS011;33163;0.000;0.000;2022-07-19T13:50:57;2.00;;;1.80;;
47413;SDS011;33163;0.000;0.000;2022-07-19T13:53:23;3.47;;;1.70;;
47413;SDS011;33163;0.000;0.000;2022-07-19T13:55:50;3.50;;;1.55;;
47413;SDS011;33163;0.000;0.000;2022-07-19T13:58:17;2.25;;;1.60;;
47413;SDS011;33163;0.000;0.000;2022-07-19T14:00:46;2.38;;;1.85;;
47413;SDS011;33163;0.000;0.000;2022-07-19T14:03:14;4.53;;;1.70;;
47413;SDS011;33163;0.000;0.000;2022-07-19T14:05:42;3.88;;;1.98;;
47413;SDS011;33163;0.000;0.000;2022-07-19T14:08:09;1.60;;;1.50;;
47413;SDS011;33163;0.000;0.000;2022-07-19T14:10:36;3.13;;;1.70;;
47413;SDS011;33163;0.000;0.000;2022-07-19T14:13:03;3.38;;;2.00;;
47413;SDS011;33163;0.000;0.000;2022-07-19T14:15:30;2.83;;;1.83;;
47413;SDS011;33163;0.000;0.000;2022-07-19T14:17:58;1.90;;;1.40;;
47413;SDS011;33163;0.000;0.000;2022-07-19T14:20:25;2.55;;;1.45;;
47413;SDS011;33163;0.000;0.000;2022-07-19T14:22:52;5.00;;;1.77;;
47413;SDS011;33163;0.000;0.000;2022-07-19T14:25:20;2.53;;;1.65;;
47413;SDS011;33163;0.000;0.000;2022-07-19T14:27:47;3.42;;;1.67;;
47413;SDS011;33163;0.000;0.000;2022-07-19T14:30:14;3.88;;;2.13;;
47413;SDS011;33163;0.000;0.000;2022-07-19T14:32:41;1.67;;;1.45;;
47413;SDS011;33163;0.000;0.000;2022-07-19T14:35:09;2.50;;;1.52;;
47413;SDS011;33163;0.000;0.000;2022-07-19T14:37:36;2.33;;;1.52;;
47413;SDS011;33163;0.000;0.000;2022-07-19T14:40:03;2.05;;;1.80;;
47413;SDS011;33163;0.000;0.000;2022-07-19T14:42:31;4.50;;;1.80;;
47413;SDS011;33163;0.000;0.000;2022-07-19T14:44:58;3.30;;;1.70;;
47413;SDS011;33163;0.000;0.000;2022-07-19T14:47:25;3.30;;;1.60;;
47413;SDS011;33163;0.000;0.000;2022-07-19T14:49:51;3.03;;;1.40;;
47413;SDS011;33163;0.000;0.000;2022-07-19T14:52:20;3.10;;;1.50;;
47413;SDS011;33163;0.000;0.000;2022-07-19T14:54:46;3.85;;;1.88;;
47413;SDS011;33163;0.000;0.000;2022-07-19T14:57:13;2.33;;;1.60;;
47413;SDS011;33163;0.000;0.000;2022-07-19T14:59:40;4.90;;;1.65;;
47413;SDS011;33163;0.000;0.000;2022-07-19T15:02:07;2.03;;;1.63;;
47413;SDS011;33163;0.000;0.000;2022-07-19T15:04:34;3.97;;;1.90;;
47413;SDS011;33163;0.000;0.000;2022-07-19T15:07:01;2.63;;;1.75;;
47413;SDS011;33163;0.000;0.000;2022-07-19T15:09:30;1.83;;;1.38;;
47413;SDS011;33163;0.000;0.000;2022-07-19T15:11:56;2.78;;;1.58;;
47413;SDS011;33163;0.000;0.000;2022-07-19T15:14:25;3.05;;;1.77;;
47413;SDS011;33163;0.000;0.000;2022-07-19T15:16:53;2.45;;;1.83;;
47413;SDS011;33163;0.000;0.000;2022-07-19T15:19:19;2.03;;;1.80;;